createdAt,value
2023-04-07T00:01:13.985Z,8.30
2023-04-07T00:03:42.480Z,6.50
2023-04-07T00:06:12.304Z,7.10
2023-04-07T00:08:40.746Z,8.03
2023-04-07T00:11:09.640Z,7.83
2023-04-07T00:13:37.924Z,9.23
2023-04-07T00:16:06.420Z,5.90
2023-04-07T00:18:34.861Z,8.20
2023-04-07T00:21:03.108Z,7.67
2023-04-07T00:23:32.930Z,6.03
2023-04-07T00:26:01.262Z,7.13
2023-04-07T00:28:29.672Z,6.90
2023-04-07T00:30:57.983Z,7.30
2023-04-07T00:33:26.331Z,7.23
2023-04-07T00:35:55.068Z,6.70
2023-04-07T00:38:23.406Z,6.13
2023-04-07T00:40:59.210Z,6.47
2023-04-07T00:43:27.517Z,6.80
2023-04-07T00:45:56.092Z,6.50
2023-04-07T00:48:24.643Z,10.57
2023-04-07T00:50:53.171Z,8.87
2023-04-07T00:53:21.948Z,10.30
2023-04-07T00:55:50.458Z,7.83
2023-04-07T00:58:20.244Z,8.63
2023-04-07T01:00:53.038Z,6.70
2023-04-07T01:03:36.210Z,7.57
2023-04-07T01:06:08.701Z,8.17
2023-04-07T01:08:46.071Z,8.83
2023-04-07T01:11:21.604Z,8.67
2023-04-07T01:13:53.409Z,7.30
2023-04-07T01:16:28.779Z,9.57
2023-04-07T01:19:01.339Z,6.33
2023-04-07T01:21:31.029Z,9.10
2023-04-07T01:24:37.648Z,10.20
2023-04-07T01:27:18.030Z,7.20
2023-04-07T01:29:50.660Z,10.10
2023-04-07T01:32:21.714Z,7.00
2023-04-07T01:34:52.118Z,7.07
2023-04-07T01:37:21.716Z,6.87
2023-04-07T01:39:50.312Z,9.73
2023-04-07T01:42:20.672Z,7.43
2023-04-07T01:44:52.475Z,7.13
2023-04-07T01:47:21.266Z,9.47
2023-04-07T01:49:51.447Z,7.93
2023-04-07T01:52:20.142Z,9.80
2023-04-07T01:54:49.484Z,6.47
2023-04-07T01:57:17.903Z,11.93
2023-04-07T01:59:46.214Z,7.93
2023-04-07T02:02:16.350Z,8.40
2023-04-07T02:04:53.932Z,10.40
2023-04-07T02:07:29.752Z,7.37
2023-04-07T02:10:01.447Z,9.10
2023-04-07T02:12:33.165Z,10.43
2023-04-07T02:15:02.697Z,9.63
2023-04-07T02:17:36.296Z,11.63
2023-04-07T02:20:06.547Z,7.93
2023-04-07T02:22:35.082Z,10.33
2023-04-07T02:25:03.630Z,8.63
2023-04-07T02:27:31.982Z,7.33
2023-04-07T02:30:00.568Z,7.03
2023-04-07T02:32:28.910Z,6.80
2023-04-07T02:34:58.832Z,8.53
2023-04-07T02:37:27.128Z,11.17
2023-04-07T02:39:55.616Z,8.73
2023-04-07T02:42:24.042Z,7.20
2023-04-07T02:44:52.553Z,6.93
2023-04-07T02:47:20.972Z,12.80
2023-04-07T02:49:49.483Z,6.77
2023-04-07T02:52:19.365Z,9.60
2023-04-07T02:54:47.851Z,8.10
2023-04-07T02:57:16.266Z,7.13
2023-04-07T02:59:44.528Z,7.77
2023-04-07T03:02:13.262Z,10.40
2023-04-07T03:04:41.995Z,11.07
2023-04-07T03:07:10.357Z,9.33
2023-04-07T03:09:40.059Z,13.33
2023-04-07T03:12:08.822Z,14.13
2023-04-07T03:14:37.386Z,18.93
2023-04-07T03:17:06.157Z,10.50
2023-04-07T03:19:34.558Z,9.30
2023-04-07T03:22:02.877Z,10.83
2023-04-07T03:24:31.409Z,11.50
2023-04-07T03:27:02.190Z,9.83
2023-04-07T03:29:30.449Z,10.57
2023-04-07T03:31:58.765Z,8.70
2023-04-07T03:34:27.213Z,11.03
2023-04-07T03:36:55.720Z,11.63
2023-04-07T03:39:24.045Z,13.00
2023-04-07T03:41:52.481Z,15.90
2023-04-07T03:44:22.266Z,12.17
2023-04-07T03:46:50.953Z,11.87
2023-04-07T03:49:19.319Z,10.47
2023-04-07T03:51:47.705Z,16.50
2023-04-07T03:54:16.145Z,9.00
2023-04-07T03:56:46.063Z,10.57
2023-04-07T03:59:14.449Z,11.87
2023-04-07T04:01:44.341Z,9.53
2023-04-07T04:04:12.888Z,12.00
2023-04-07T04:06:41.438Z,9.37
2023-04-07T04:09:09.936Z,12.67
2023-04-07T04:11:38.284Z,9.33
2023-04-07T04:14:06.780Z,11.40
2023-04-07T04:16:35.625Z,10.77
2023-04-07T04:19:05.560Z,12.80
2023-04-07T04:21:34.072Z,11.53
2023-04-07T04:24:02.468Z,11.57
2023-04-07T04:26:30.880Z,10.47
2023-04-07T04:28:59.130Z,11.57
2023-04-07T04:31:27.427Z,16.10
2023-04-07T04:33:56.212Z,13.00
2023-04-07T04:36:26.388Z,11.50
2023-04-07T04:38:54.693Z,10.57
2023-04-07T04:41:23.193Z,11.90
2023-04-07T04:43:51.640Z,12.50
2023-04-07T04:46:19.965Z,15.40
2023-04-07T04:48:48.434Z,11.27
2023-04-07T04:51:16.831Z,12.73
2023-04-07T04:53:46.658Z,12.63
2023-04-07T04:56:15.043Z,11.37
2023-04-07T04:58:46.528Z,15.00
2023-04-07T05:01:15.197Z,14.93
2023-04-07T05:03:43.886Z,27.83
2023-04-07T05:06:12.290Z,17.80
2023-04-07T05:08:40.602Z,14.97
2023-04-07T05:11:10.442Z,13.93
2023-04-07T05:13:38.767Z,11.77
2023-04-07T05:16:07.905Z,11.40
2023-04-07T05:18:36.584Z,11.10
2023-04-07T05:21:05.331Z,12.27
2023-04-07T05:23:33.659Z,12.53
2023-04-07T05:26:02.065Z,18.33
2023-04-07T05:28:32.077Z,11.83
2023-04-07T05:31:01.536Z,13.67
2023-04-07T05:33:29.917Z,13.80
2023-04-07T05:35:58.440Z,12.00
2023-04-07T05:38:26.896Z,19.30
2023-04-07T05:40:55.211Z,13.80
2023-04-07T05:43:23.589Z,11.97
2023-04-07T05:45:53.545Z,14.27
2023-04-07T05:48:21.903Z,10.83
2023-04-07T05:50:50.225Z,15.20
2023-04-07T05:53:18.606Z,12.30
2023-04-07T05:55:46.883Z,22.53
2023-04-07T05:58:15.236Z,14.20
2023-04-07T06:00:43.604Z,12.83
2023-04-07T06:03:13.426Z,12.97
2023-04-07T06:05:43.754Z,14.20
2023-04-07T06:08:12.131Z,13.27
2023-04-07T06:10:41.606Z,12.30
2023-04-07T06:13:09.945Z,14.13
2023-04-07T06:15:38.317Z,13.37
2023-04-07T06:18:06.816Z,11.23
2023-04-07T06:20:37.080Z,15.93
2023-04-07T06:23:05.387Z,15.53
2023-04-07T06:25:33.744Z,13.97
2023-04-07T06:28:02.206Z,14.93
2023-04-07T06:30:30.862Z,12.47
2023-04-07T06:32:59.249Z,15.87
2023-04-07T06:35:28.111Z,13.83
2023-04-07T06:37:58.292Z,15.43
2023-04-07T06:40:26.725Z,17.27
2023-04-07T06:42:56.650Z,11.70
2023-04-07T06:45:25.081Z,12.57
2023-04-07T06:47:53.439Z,12.33
2023-04-07T06:50:22.505Z,15.13
2023-04-07T06:52:50.766Z,12.13
2023-04-07T06:55:20.827Z,19.87
2023-04-07T06:57:50.899Z,15.13
2023-04-07T07:00:20.281Z,15.10
2023-04-07T07:02:48.800Z,17.73
2023-04-07T07:05:17.572Z,15.53
2023-04-07T07:07:45.902Z,23.90
2023-04-07T07:10:14.247Z,16.83
2023-04-07T07:12:44.283Z,17.83
2023-04-07T07:15:13.021Z,12.47
2023-04-07T07:17:41.637Z,12.33
2023-04-07T07:20:11.237Z,12.00
2023-04-07T07:22:39.737Z,25.57
2023-04-07T07:25:08.787Z,20.50
2023-04-07T07:27:37.101Z,19.57
2023-04-07T07:30:08.730Z,14.30
2023-04-07T07:32:37.679Z,13.23
2023-04-07T07:35:08.629Z,12.47
2023-04-07T07:37:37.287Z,13.67
2023-04-07T07:40:06.042Z,12.20
2023-04-07T07:42:34.484Z,16.63
2023-04-07T07:45:02.978Z,11.97
2023-04-07T07:47:32.968Z,13.67
2023-04-07T07:50:01.427Z,14.87
2023-04-07T07:52:29.767Z,12.93
2023-04-07T07:54:59.301Z,19.17
2023-04-07T07:57:27.690Z,17.20
2023-04-07T07:59:56.041Z,20.20
2023-04-07T08:02:29.945Z,12.73
2023-04-07T08:04:59.980Z,19.50
2023-04-07T08:07:29.146Z,15.83
2023-04-07T08:09:57.501Z,13.30
2023-04-07T08:12:26.644Z,11.67
2023-04-07T08:14:55.015Z,20.37
2023-04-07T08:17:23.378Z,14.20
2023-04-07T08:19:51.746Z,13.67
2023-04-07T08:22:21.446Z,15.70
2023-04-07T08:24:49.875Z,17.30
2023-04-07T08:27:18.383Z,15.30
2023-04-07T08:29:46.708Z,14.00
2023-04-07T08:32:15.449Z,17.70
2023-04-07T08:34:46.756Z,15.20
2023-04-07T08:37:15.151Z,15.93
2023-04-07T08:39:44.979Z,15.73
2023-04-07T08:42:14.374Z,15.47
2023-04-07T08:44:43.041Z,16.03
2023-04-07T08:47:12.112Z,20.10
2023-04-07T08:49:44.985Z,15.73
2023-04-07T08:52:16.622Z,14.97
2023-04-07T08:54:46.580Z,14.43
2023-04-07T08:57:15.850Z,13.87
2023-04-07T08:59:47.282Z,20.03
2023-04-07T09:02:16.637Z,13.93
2023-04-07T09:04:45.893Z,19.90
2023-04-07T09:07:14.162Z,20.50
2023-04-07T09:09:42.872Z,18.10
2023-04-07T09:12:13.440Z,19.57
2023-04-07T09:14:41.833Z,14.90
2023-04-07T09:17:10.128Z,15.90
2023-04-07T09:19:38.785Z,15.43
2023-04-07T09:22:08.437Z,18.53
2023-04-07T09:24:36.837Z,15.70
2023-04-07T09:27:16.933Z,17.80
2023-04-07T09:29:47.258Z,16.87
2023-04-07T09:32:37.337Z,19.63
2023-04-07T09:35:06.565Z,21.97
2023-04-07T09:37:34.990Z,22.30
2023-04-07T09:40:03.411Z,15.67
2023-04-07T09:42:36.254Z,12.90
2023-04-07T09:45:04.853Z,21.33
2023-04-07T09:47:34.141Z,16.23
2023-04-07T09:50:07.139Z,15.43
2023-04-07T09:52:54.056Z,19.83
2023-04-07T09:55:23.707Z,15.23
2023-04-07T09:57:55.515Z,13.23
2023-04-07T10:00:24.131Z,13.80
2023-04-07T10:02:53.473Z,15.00
2023-04-07T10:05:22.760Z,13.63
2023-04-07T10:07:51.584Z,13.07
2023-04-07T10:10:20.038Z,15.60
2023-04-07T10:12:55.590Z,12.07
2023-04-07T10:15:24.673Z,15.20
2023-04-07T10:17:57.005Z,13.37
2023-04-07T10:20:26.254Z,10.80
2023-04-07T10:22:57.089Z,13.60
2023-04-07T10:25:27.060Z,11.90
2023-04-07T10:28:01.781Z,10.10
2023-04-07T10:30:33.632Z,14.73
2023-04-07T10:33:02.506Z,14.13
2023-04-07T10:35:51.311Z,14.40
2023-04-07T10:38:19.864Z,12.23
2023-04-07T10:40:48.385Z,13.53
2023-04-07T10:43:39.066Z,17.23
2023-04-07T10:46:07.442Z,15.97
2023-04-07T10:48:36.382Z,15.00
2023-04-07T10:51:18.413Z,12.93
2023-04-07T10:54:16.986Z,15.20
2023-04-07T10:57:10.336Z,17.63
2023-04-07T10:59:43.082Z,16.90
2023-04-07T11:02:33.925Z,13.80
2023-04-07T11:05:02.871Z,15.30
2023-04-07T11:07:50.064Z,16.40
2023-04-07T11:10:19.613Z,14.97
2023-04-07T11:13:07.640Z,15.40
2023-04-07T11:15:40.727Z,13.70
2023-04-07T11:18:12.309Z,15.97
2023-04-07T11:20:48.914Z,11.90
2023-04-07T11:23:18.744Z,16.60
2023-04-07T11:25:48.364Z,24.57
2023-04-07T11:28:16.880Z,19.57
2023-04-07T11:30:52.917Z,16.93
2023-04-07T11:33:22.736Z,17.03
2023-04-07T11:35:56.947Z,17.60
2023-04-07T11:38:27.356Z,22.00
2023-04-07T11:40:56.769Z,16.67
2023-04-07T11:43:26.537Z,18.20
2023-04-07T11:46:10.852Z,15.60
2023-04-07T11:48:39.994Z,14.30
2023-04-07T11:51:08.976Z,13.50
2023-04-07T11:53:38.785Z,15.37
2023-04-07T11:56:10.099Z,14.00
2023-04-07T11:58:38.795Z,15.90
2023-04-07T12:01:10.356Z,14.70
2023-04-07T12:03:39.319Z,14.17
2023-04-07T12:06:07.827Z,12.27
2023-04-07T12:08:41.055Z,16.00
2023-04-07T12:11:09.405Z,18.70
2023-04-07T12:13:38.142Z,12.63
2023-04-07T12:16:06.852Z,13.00
2023-04-07T12:18:36.670Z,16.53
2023-04-07T12:21:05.645Z,16.80
2023-04-07T12:23:34.047Z,20.73
2023-04-07T12:26:02.557Z,12.40
2023-04-07T12:28:30.842Z,15.93
2023-04-07T12:30:59.272Z,14.17
2023-04-07T12:33:27.676Z,17.73
2023-04-07T12:35:58.135Z,15.60
2023-04-07T12:38:26.552Z,11.87
2023-04-07T12:40:54.804Z,12.43
2023-04-07T12:43:23.717Z,10.60
2023-04-07T12:45:52.079Z,13.17
2023-04-07T12:48:20.453Z,10.60
2023-04-07T12:50:48.696Z,12.00
2023-04-07T12:53:18.596Z,10.73
2023-04-07T12:55:50.137Z,11.60
2023-04-07T12:58:19.214Z,14.80
2023-04-07T13:00:48.627Z,21.87
2023-04-07T13:03:17.727Z,14.90
2023-04-07T13:05:46.325Z,23.53
2023-04-07T13:08:14.630Z,17.50
2023-04-07T13:10:44.449Z,17.67
2023-04-07T13:13:12.972Z,15.30
2023-04-07T13:15:41.442Z,21.63
2023-04-07T13:18:09.743Z,17.40
2023-04-07T13:20:38.144Z,15.10
2023-04-07T13:23:09.641Z,24.50
2023-04-07T13:25:38.383Z,120.03
2023-04-07T13:28:08.140Z,53.77
2023-04-07T13:30:36.482Z,49.63
2023-04-07T13:33:05.104Z,92.27
2023-04-07T13:35:36.104Z,33.27
2023-04-07T13:38:04.613Z,50.67
2023-04-07T13:40:32.919Z,26.20
2023-04-07T13:43:01.867Z,19.33
2023-04-07T13:45:31.599Z,18.67
2023-04-07T13:47:59.955Z,36.93
2023-04-07T13:50:29.124Z,14.10
2023-04-07T13:52:57.496Z,14.83
2023-04-07T13:55:25.941Z,12.67
2023-04-07T13:57:54.899Z,14.47
2023-04-07T14:00:23.261Z,27.20
2023-04-07T14:02:53.155Z,19.90
2023-04-07T14:05:21.776Z,24.17
2023-04-07T14:07:51.150Z,11.23
2023-04-07T14:10:19.796Z,16.23
2023-04-07T14:12:48.578Z,14.47
2023-04-07T14:15:18.384Z,13.33
2023-04-07T14:17:46.838Z,12.70
2023-04-07T14:20:16.794Z,18.40
2023-04-07T14:22:45.300Z,16.60
2023-04-07T14:25:13.636Z,12.87
2023-04-07T14:27:42.011Z,13.17
2023-04-07T14:30:11.677Z,14.77
2023-04-07T14:32:40.090Z,15.90
2023-04-07T14:35:09.383Z,25.73
2023-04-07T14:37:39.869Z,12.90
2023-04-07T14:40:09.500Z,11.77
2023-04-07T14:42:38.251Z,16.43
2023-04-07T14:45:07.696Z,12.10
2023-04-07T14:47:36.138Z,14.30
2023-04-07T14:50:04.505Z,11.97
2023-04-07T14:52:32.930Z,13.40
2023-04-07T14:55:02.926Z,16.10
2023-04-07T14:57:31.477Z,17.63
2023-04-07T14:59:59.765Z,23.37
2023-04-07T15:02:29.375Z,23.53
2023-04-07T15:04:58.037Z,15.10
2023-04-07T15:07:26.838Z,16.00
2023-04-07T15:09:55.490Z,12.20
2023-04-07T15:12:26.472Z,28.53
2023-04-07T15:14:55.034Z,18.60
2023-04-07T15:17:32.994Z,19.90
2023-04-07T15:20:05.332Z,16.60
2023-04-07T15:22:34.023Z,14.87
2023-04-07T15:25:03.444Z,18.73
2023-04-07T15:27:33.191Z,14.87
2023-04-07T15:30:01.587Z,15.73
2023-04-07T15:32:32.587Z,13.43
2023-04-07T15:35:01.119Z,21.33
2023-04-07T15:37:29.386Z,16.80
2023-04-07T15:39:57.675Z,21.73
2023-04-07T15:42:25.966Z,14.77
2023-04-07T15:44:55.786Z,16.20
2023-04-07T15:47:24.103Z,15.87
2023-04-07T15:49:52.559Z,17.33
2023-04-07T15:52:21.051Z,17.77
2023-04-07T15:54:49.390Z,23.03
2023-04-07T15:57:17.933Z,18.47
2023-04-07T15:59:46.500Z,21.43
2023-04-07T16:02:16.902Z,22.60
2023-04-07T16:04:47.491Z,25.40
2023-04-07T16:07:15.852Z,25.67
2023-04-07T16:09:44.386Z,20.13
2023-04-07T16:12:12.756Z,20.90
2023-04-07T16:14:41.244Z,21.40
2023-04-07T16:17:09.711Z,20.80
2023-04-07T16:19:39.552Z,19.73
2023-04-07T16:22:07.835Z,17.20
2023-04-07T16:24:37.469Z,18.83
2023-04-07T16:27:05.821Z,20.53
2023-04-07T16:29:34.215Z,17.70
2023-04-07T16:32:03.397Z,23.20
2023-04-07T16:34:32.401Z,17.30
2023-04-07T16:37:02.184Z,24.40
2023-04-07T16:39:30.738Z,19.00
2023-04-07T16:41:59.071Z,18.80
2023-04-07T16:44:27.421Z,15.30
2023-04-07T16:46:55.820Z,13.90
2023-04-07T16:49:24.354Z,20.20
2023-04-07T16:51:52.800Z,17.53
2023-04-07T16:54:22.709Z,16.50
2023-04-07T16:56:51.419Z,17.00
2023-04-07T16:59:19.741Z,20.90
2023-04-07T17:01:48.175Z,16.37
2023-04-07T17:04:16.684Z,22.13
2023-04-07T17:06:45.009Z,19.37
2023-04-07T17:09:16.173Z,17.50
2023-04-07T17:11:45.985Z,23.97
2023-04-07T17:14:14.336Z,26.97
2023-04-07T17:16:42.759Z,21.57
2023-04-07T17:19:11.210Z,22.17
2023-04-07T17:21:39.598Z,25.30
2023-04-07T17:24:08.392Z,20.63
2023-04-07T17:26:36.812Z,18.37
2023-04-07T17:29:06.530Z,16.33
2023-04-07T17:31:36.139Z,21.17
2023-04-07T17:34:04.566Z,19.60
2023-04-07T17:36:33.837Z,20.50
2023-04-07T17:39:03.246Z,21.53
2023-04-07T17:41:34.441Z,24.87
2023-04-07T17:44:03.325Z,23.57
2023-04-07T17:46:33.166Z,19.33
2023-04-07T17:49:02.125Z,25.00
2023-04-07T17:51:30.530Z,27.67
2023-04-07T17:53:58.904Z,20.43
2023-04-07T17:56:27.239Z,17.20
2023-04-07T17:58:55.835Z,15.20
2023-04-07T18:01:24.789Z,16.03
2023-04-07T18:03:55.734Z,18.20
2023-04-07T18:06:24.260Z,19.63
2023-04-07T18:08:52.698Z,18.13
2023-04-07T18:11:21.791Z,26.87
2023-04-07T18:13:50.725Z,21.23
2023-04-07T18:16:22.042Z,25.70
2023-04-07T18:18:50.773Z,26.23
2023-04-07T18:21:20.524Z,18.43
2023-04-07T18:23:48.992Z,13.60
2023-04-07T18:26:17.744Z,17.93
2023-04-07T18:28:46.626Z,14.90
2023-04-07T18:31:15.561Z,14.10
2023-04-07T18:33:43.975Z,19.43
2023-04-07T18:36:13.932Z,23.17
2023-04-07T18:38:43.724Z,21.70
2023-04-07T18:41:14.244Z,16.43
2023-04-07T18:43:42.761Z,17.63
2023-04-07T18:46:11.743Z,15.43
2023-04-07T18:48:41.003Z,18.20
2023-04-07T18:51:09.480Z,15.13
2023-04-07T18:53:38.112Z,18.53
2023-04-07T18:56:07.929Z,18.17
2023-04-07T18:58:43.792Z,15.80
2023-04-07T19:01:13.155Z,13.23
2023-04-07T19:03:42.071Z,14.70
2023-04-07T19:06:10.780Z,14.47
2023-04-07T19:08:39.805Z,17.80
2023-04-07T19:11:09.562Z,14.33
2023-04-07T19:13:37.888Z,16.13
2023-04-07T19:16:07.752Z,13.73
2023-04-07T19:18:36.798Z,21.60
2023-04-07T19:21:05.390Z,18.70
2023-04-07T19:23:33.756Z,26.20
2023-04-07T19:26:02.169Z,24.80
2023-04-07T19:28:33.877Z,16.57
2023-04-07T19:31:02.505Z,17.60
2023-04-07T19:33:30.874Z,19.90
2023-04-07T19:35:59.276Z,18.80
2023-04-07T19:38:27.801Z,25.70
2023-04-07T19:40:56.267Z,26.50
2023-04-07T19:43:24.788Z,22.17
2023-04-07T19:45:54.689Z,33.07
2023-04-07T19:48:23.557Z,27.00
2023-04-07T19:50:51.861Z,29.90
2023-04-07T19:53:22.444Z,27.63
2023-04-07T19:55:50.967Z,31.17
2023-04-07T19:58:21.830Z,21.43
2023-04-07T20:00:51.957Z,22.63
2023-04-07T20:03:22.103Z,21.67
2023-04-07T20:05:52.936Z,27.80
2023-04-07T20:08:21.504Z,21.07
2023-04-07T20:10:52.630Z,22.30
2023-04-07T20:13:21.221Z,20.57
2023-04-07T20:15:49.840Z,23.27
2023-04-07T20:18:18.702Z,21.60
2023-04-07T20:20:48.540Z,22.63
2023-04-07T20:23:22.193Z,21.70
2023-04-07T20:25:50.500Z,24.73
2023-04-07T20:28:18.835Z,25.33
2023-04-07T20:30:47.282Z,27.80
2023-04-07T20:33:15.733Z,25.60
2023-04-07T20:35:44.239Z,30.17
2023-04-07T20:38:14.892Z,25.77
2023-04-07T20:40:43.256Z,20.50
2023-04-07T20:43:11.795Z,34.90
2023-04-07T20:45:40.913Z,37.70
2023-04-07T20:48:09.477Z,29.90
2023-04-07T20:50:38.371Z,22.97
2023-04-07T20:53:06.942Z,30.37
2023-04-07T20:55:36.789Z,26.33
2023-04-07T20:58:05.585Z,34.17
2023-04-07T21:00:34.069Z,33.13
2023-04-07T21:03:02.826Z,27.90
2023-04-07T21:05:31.359Z,29.13
2023-04-07T21:07:59.664Z,36.97
2023-04-07T21:10:28.309Z,35.93
2023-04-07T21:12:58.069Z,30.90
2023-04-07T21:15:26.558Z,28.43
2023-04-07T21:17:55.003Z,27.53
2023-04-07T21:20:23.436Z,20.80
2023-04-07T21:22:51.768Z,25.37
2023-04-07T21:25:20.424Z,17.90
2023-04-07T21:27:48.752Z,24.90
2023-04-07T21:30:18.475Z,21.07
2023-04-07T21:32:47.264Z,22.20
2023-04-07T21:35:15.742Z,21.40
2023-04-07T21:37:44.091Z,21.90
2023-04-07T21:40:13.245Z,21.30
2023-04-07T21:42:41.892Z,21.30
2023-04-07T21:45:11.707Z,19.07
2023-04-07T21:47:41.900Z,23.13
2023-04-07T21:50:10.889Z,29.33
2023-04-07T21:52:39.520Z,19.70
2023-04-07T21:55:10.103Z,19.50
2023-04-07T21:57:38.577Z,20.30
2023-04-07T22:00:08.603Z,16.40
2023-04-07T22:02:37.358Z,21.23
2023-04-07T22:05:07.671Z,25.57
2023-04-07T22:07:36.229Z,29.33
2023-04-07T22:10:04.932Z,28.00
2023-04-07T22:12:33.416Z,26.67
2023-04-07T22:15:01.778Z,16.80
2023-04-07T22:17:30.225Z,19.63
2023-04-07T22:19:58.614Z,19.90
2023-04-07T22:22:28.375Z,22.97
2023-04-07T22:24:56.726Z,24.70
2023-04-07T22:27:25.076Z,20.17
2023-04-07T22:29:53.457Z,21.57
2023-04-07T22:32:21.903Z,21.50
2023-04-07T22:34:50.267Z,17.73
2023-04-07T22:37:19.453Z,21.07
2023-04-07T22:39:49.285Z,19.00
2023-04-07T22:42:17.660Z,20.57
2023-04-07T22:44:46.298Z,18.63
2023-04-07T22:47:14.631Z,24.17
2023-04-07T22:49:43.380Z,18.60
2023-04-07T22:52:13.817Z,21.23
2023-04-07T22:54:42.142Z,27.23
2023-04-07T22:57:11.879Z,31.10
2023-04-07T22:59:40.486Z,20.97
2023-04-07T23:02:08.900Z,20.23
2023-04-07T23:04:37.287Z,17.00
2023-04-07T23:07:05.800Z,19.07
2023-04-07T23:09:34.125Z,18.70
2023-04-07T23:12:02.766Z,13.23
2023-04-07T23:14:32.728Z,14.83
2023-04-07T23:17:01.310Z,13.93
2023-04-07T23:19:30.032Z,16.27
2023-04-07T23:21:58.354Z,13.60
2023-04-07T23:24:26.984Z,12.90
2023-04-07T23:26:56.040Z,18.67
2023-04-07T23:29:24.314Z,14.13
2023-04-07T23:31:54.455Z,15.80
2023-04-07T23:34:22.997Z,12.13
2023-04-07T23:36:51.771Z,16.87
2023-04-07T23:39:20.139Z,14.43
2023-04-07T23:41:48.464Z,12.90
2023-04-07T23:44:16.987Z,16.97
2023-04-07T23:46:45.396Z,12.03
2023-04-07T23:49:15.150Z,13.03
2023-04-07T23:51:43.835Z,15.23
2023-04-07T23:54:12.514Z,17.83
2023-04-07T23:56:40.966Z,15.40
2023-04-07T23:59:09.258Z,14.90
